Ellisburg, New Jersey
Current Conditions -  °F | °C
As of 5:54 PM on Tuesday 27 Jan 2015 (Local Time) from KVAY Reporting Station
Clear Clear  
Wind Chill: 22°   Ceiling: Unl
Heat Index: 30°   Visibility: 10mi
Dew Point: 10°   Wind: 9mph
Humidity: 43%   Direction: 320°NW
Pressure: 29.74"   Gusts: NA
Location:  39.9312°N, 75.0244°W
Report Text: KVAY 272254Z AUTO 32008KT 10SM CLR M01/M12 A2974 RMK AO2 SLP071 T10111122
Loading
Personal Weather Stations






























Interactive Weather Map New forecast layout! Learn more

10-Day Weather Forecast

Advertisements
Track Severe Weather on mobile